Ester, AK (99725)

4:19 PM AKDT on September 03, 2015 (GMT -0800)
EsterOldRidgeTrl | | Change Station
CLOSE
Current Station
Personal Weather Station
Location: Fairbanks, AK
Elevation: 1200 ft
Nearby Weather Stations

Elev 1200 ft 64.83 °N, 148.18 °W | Updated 3 minutes ago

Mostly Cloudy
Mostly Cloudy
64.9 °F
Feels Like 64.9 °F
N
2.7
Wind Variable Wind from NW

Today
High -- | Low -- °F
--% Chance of Precip.
Yesterday
High -- | Low -- °F
Precip. -- in
6:38 AM 9:04 PM
Waning Gibbous, 65% visible
Pressure 29.85 in
Visibility 10.0 miles
Clouds Few 15000 ft
Mostly Cloudy 20000 ft
Dew Point 44 °F
Humidity 47%
Rainfall 0.00 in
Snow Depth Not available.
UV 2 out of 12
Pollen Not available.
Air Quality Not available.
Flu Activity Not available.
METAR PAFA 032353Z 07009KT 10SM FEW150 BKN200 20/03 A2983 RMK AO2 SLP106 T02000028 10206 20111 56019
Pressure 29.85 in
Visibility 10.0 miles
Clouds Few 15000 ft
Mostly Cloudy 20000 ft
Dew Point 44 °F
Humidity 47%
Rainfall 0.00 in
Snow Depth Not available.
UV 2 out of 12
Pollen Not available.
Air Quality Not available.
Flu Activity Not available.
METAR PAFA 032353Z 07009KT 10SM FEW150 BKN200 20/03 A2983 RMK AO2 SLP106 T02000028 10206 20111 56019

10-Day Weather Forecast

×

Almanac

Astronomy

Sep. 03, 2015 Rise Set
Actual Time
Civil Twilight
Nautical Twilight
Astronomical Twilight
Moon
Length of Visible Light
Length of Day
Tomorrow will be .
, % of the Moon is Illuminated

Today's Extremes

State Highs State Lows

Community

WunderPhotos

Upload Photos

1,852,068 photos uploaded!

WunderBlogs® & News

Nearby

Air Quality

  Air Quality AQ Index Pollutant
Not available.

Snow Depth

Station Depth Elevation

Earthquake Activity

City Distance Mag. Time & Date
Minimum magnitude displayed is 2.5.

Coastal Water Temperatures

Place Temperature

Stations

Nearby Weather Stations

Station Location Temp. Windchill Dew Point Humidity Wind Precip. Elev Updated Type